Main page
METAR-TAF:

METAR-TAF

Airports :

A Coruña Airport

A Coruña, Spain

latitude: 43-18N, longitude: 008-23W, elevation: 97 m

Current weather observation

The report was made 15 minutes ago, at 05:30 UTC
Calm wind
Temperature 16°C
Humidity 100%
Pressure 1019 hPa
Visibility: 5000 m
mist

METAR: LECO 150530Z 00000KT 5000 BR NSC 16/16 Q1019 NOSIG

Time: 07:45 (05:45 UTC)

Forecast

The report was made 3 hours and 45 minutes ago, at 02:00 UTC
Forecast valid from 15 at 03 UTC to 16 at 03 UTC
Wind 7 kt from the North
Visibility 10 km or more
Few clouds at a height of 3000 ft
Probability 40% :
Temporary
from 15 at 03 UTC to 15 at 07 UTC
Visibility: 3000 m
Broken clouds at a height of 1000 ft
patches of fog
Probability 30% :
Temporary
from 15 at 03 UTC to 15 at 07 UTC
Visibility: 0350 m
at a height of 100 ft
fog

TAF: LECO 150200Z 1503/1603 36007KT 9999 FEW030 TX28/1514Z TN15/1505Z PROB40 TEMPO 1503/1507 3000 BCFG BKN010 PROB30 TEMPO 1503/1507 0350 FG VV001

Weather observations and forecasts of more than 4000 airports (METAR and TAF reports).

The available stations are represented by yellow and red dots on the map.

Hover mouse over dot to see the name of the station.

Then click to see weather observations and forecasts.

To change the map : click on the green buttons with a black cross to zoom in, on the green button with a dash to zoom out, or on the green arrows for adjacent maps.


METAR-TAF: